Rockford, IL

11:27 PM CDT on August 28, 2015 (GMT -0500)
Greater Rockford | | Change Station
CLOSE
Current Station
Airport
Location: Rockford,
Elevation: 741 ft
Nearby Weather Stations

Elev 741 ft 42.19 °N, 89.09 °W | Updated 33 minutes ago

Light Rain
Light Rain
66 °F
Feels Like 66 °F
N
13
Wind Variable Wind from East

Today
High -- | Low -- °F
--% Chance of Precip.
Yesterday
High -- | Low -- °F
Precip. -- in
6:17 AM 7:37 PM
Waxing Gibbous, 99% visible
Pressure 30.07 in
Visibility 10.0 miles
Clouds Scattered Clouds 4800 ft
Mostly Cloudy 6500 ft
Overcast 9000 ft
Dew Point 61 °F
Humidity 84%
Rainfall 0.04 in
Snow Depth Not available.
UV 0 out of 12
Pollen 8.30 out of 12
Air Quality Not available.
Flu Activity Not available.
METAR KRFD 290354Z 08011KT 10SM -RA SCT048 BKN065 OVC090 19/16 A3008 RMK AO2 SLP182 P0004 T01890161
Pressure 30.07 in
Visibility 10.0 miles
Clouds Scattered Clouds 4800 ft
Mostly Cloudy 6500 ft
Overcast 9000 ft
Dew Point 61 °F
Humidity 84%
Rainfall 0.04 in
Snow Depth Not available.
UV 0 out of 12
Pollen 8.30 out of 12
Air Quality Not available.
Flu Activity Not available.
METAR KRFD 290354Z 08011KT 10SM -RA SCT048 BKN065 OVC090 19/16 A3008 RMK AO2 SLP182 P0004 T01890161

10-Day Weather Forecast

×

Almanac

Astronomy

Aug. 28, 2015 Rise Set
Actual Time
Civil Twilight
Nautical Twilight
Astronomical Twilight
Moon
Length of Visible Light
Length of Day
Tomorrow will be .
, % of the Moon is Illuminated

Today's Extremes

State Highs State Lows

Community

WunderPhotos

Upload Photos

1,850,613 photos uploaded!

WunderBlogs® & News

Nearby

Air Quality

  Air Quality AQ Index Pollutant
Not available.

Snow Depth

Station Depth Elevation

Earthquake Activity

City Distance Mag. Time & Date
Minimum magnitude displayed is 2.5.

Coastal Water Temperatures

Place Temperature

Stations

Nearby Weather Stations

Station Location Temp. Windchill Dew Point Humidity Wind Precip. Elev Updated Type